sensor_id;sensor_type;location;lat;lon;timestamp;P1;durP1;ratioP1;P2;durP2;ratioP2
5630;SDS011;2837;50.990;7.124;2023-04-07T05:00:54;162.37;;;11.97;;
5630;SDS011;2837;50.990;7.124;2023-04-07T05:03:24;162.47;;;11.77;;
5630;SDS011;2837;50.990;7.124;2023-04-07T05:05:50;161.00;;;11.60;;
5630;SDS011;2837;50.990;7.124;2023-04-07T05:08:16;162.30;;;12.40;;
5630;SDS011;2837;50.990;7.124;2023-04-07T05:10:41;162.87;;;12.27;;
5630;SDS011;2837;50.990;7.124;2023-04-07T05:13:07;161.07;;;11.70;;
5630;SDS011;2837;50.990;7.124;2023-04-07T05:15:32;162.30;;;11.87;;
5630;SDS011;2837;50.990;7.124;2023-04-07T05:17:58;164.77;;;12.90;;
5630;SDS011;2837;50.990;7.124;2023-04-07T05:20:24;162.27;;;11.60;;
5630;SDS011;2837;50.990;7.124;2023-04-07T05:22:50;162.20;;;11.80;;
5630;SDS011;2837;50.990;7.124;2023-04-07T05:25:15;162.47;;;11.70;;
5630;SDS011;2837;50.990;7.124;2023-04-07T05:27:41;164.20;;;12.57;;
5630;SDS011;2837;50.990;7.124;2023-04-07T05:30:07;162.20;;;11.50;;
5630;SDS011;2837;50.990;7.124;2023-04-07T05:32:32;160.97;;;11.47;;
5630;SDS011;2837;50.990;7.124;2023-04-07T05:34:58;161.37;;;12.00;;
5630;SDS011;2837;50.990;7.124;2023-04-07T05:37:24;162.07;;;11.50;;
5630;SDS011;2837;50.990;7.124;2023-04-07T05:39:49;164.27;;;12.13;;
5630;SDS011;2837;50.990;7.124;2023-04-07T05:42:15;164.17;;;12.07;;
5630;SDS011;2837;50.990;7.124;2023-04-07T05:44:41;163.80;;;12.60;;
5630;SDS011;2837;50.990;7.124;2023-04-07T05:47:06;166.33;;;12.27;;
5630;SDS011;2837;50.990;7.124;2023-04-07T05:49:33;161.67;;;11.70;;
5630;SDS011;2837;50.990;7.124;2023-04-07T05:51:59;165.93;;;12.50;;
5630;SDS011;2837;50.990;7.124;2023-04-07T05:54:24;163.27;;;11.87;;
5630;SDS011;2837;50.990;7.124;2023-04-07T05:56:50;162.77;;;12.50;;
5630;SDS011;2837;50.990;7.124;2023-04-07T05:59:16;164.57;;;12.90;;
5630;SDS011;2837;50.990;7.124;2023-04-07T06:01:41;163.63;;;11.47;;
5630;SDS011;2837;50.990;7.124;2023-04-07T06:04:07;162.73;;;12.47;;
5630;SDS011;2837;50.990;7.124;2023-04-07T06:06:32;162.87;;;12.00;;
5630;SDS011;2837;50.990;7.124;2023-04-07T06:08:58;165.27;;;11.97;;
5630;SDS011;2837;50.990;7.124;2023-04-07T06:11:24;163.07;;;12.37;;
5630;SDS011;2837;50.990;7.124;2023-04-07T06:13:51;162.90;;;11.70;;
5630;SDS011;2837;50.990;7.124;2023-04-07T06:16:16;161.80;;;11.53;;
5630;SDS011;2837;50.990;7.124;2023-04-07T06:18:42;162.60;;;10.90;;
5630;SDS011;2837;50.990;7.124;2023-04-07T06:21:07;160.23;;;11.00;;
5630;SDS011;2837;50.990;7.124;2023-04-07T06:23:33;159.97;;;11.40;;
5630;SDS011;2837;50.990;7.124;2023-04-07T06:25:59;161.40;;;11.20;;
5630;SDS011;2837;50.990;7.124;2023-04-07T06:28:24;160.07;;;10.50;;
5630;SDS011;2837;50.990;7.124;2023-04-07T06:30:50;160.73;;;10.63;;
5630;SDS011;2837;50.990;7.124;2023-04-07T06:33:16;159.40;;;10.40;;
5630;SDS011;2837;50.990;7.124;2023-04-07T06:35:41;161.07;;;10.50;;
5630;SDS011;2837;50.990;7.124;2023-04-07T06:38:07;160.07;;;10.13;;
5630;SDS011;2837;50.990;7.124;2023-04-07T06:40:33;160.37;;;10.60;;
5630;SDS011;2837;50.990;7.124;2023-04-07T06:42:58;162.40;;;10.77;;
5630;SDS011;2837;50.990;7.124;2023-04-07T06:45:24;160.27;;;10.40;;
5630;SDS011;2837;50.990;7.124;2023-04-07T06:47:49;159.90;;;10.03;;
5630;SDS011;2837;50.990;7.124;2023-04-07T06:50:15;159.73;;;9.53;;
5630;SDS011;2837;50.990;7.124;2023-04-07T06:52:44;160.37;;;9.57;;
5630;SDS011;2837;50.990;7.124;2023-04-07T06:55:10;164.37;;;10.33;;
5630;SDS011;2837;50.990;7.124;2023-04-07T06:57:35;158.77;;;10.00;;
5630;SDS011;2837;50.990;7.124;2023-04-07T07:00:01;159.97;;;10.30;;
5630;SDS011;2837;50.990;7.124;2023-04-07T07:02:26;160.97;;;10.60;;
5630;SDS011;2837;50.990;7.124;2023-04-07T07:04:52;159.57;;;10.23;;
5630;SDS011;2837;50.990;7.124;2023-04-07T07:07:17;160.33;;;10.30;;
5630;SDS011;2837;50.990;7.124;2023-04-07T07:09:43;159.77;;;9.93;;
5630;SDS011;2837;50.990;7.124;2023-04-07T07:12:08;161.57;;;10.17;;
5630;SDS011;2837;50.990;7.124;2023-04-07T07:14:34;158.60;;;9.67;;
5630;SDS011;2837;50.990;7.124;2023-04-07T07:16:59;158.40;;;9.80;;
5630;SDS011;2837;50.990;7.124;2023-04-07T07:19:25;159.87;;;9.93;;
5630;SDS011;2837;50.990;7.124;2023-04-07T07:21:51;157.63;;;9.33;;
5630;SDS011;2837;50.990;7.124;2023-04-07T07:24:16;158.23;;;9.53;;
5630;SDS011;2837;50.990;7.124;2023-04-07T07:26:42;158.50;;;9.70;;
5630;SDS011;2837;50.990;7.124;2023-04-07T07:29:08;158.67;;;9.67;;
5630;SDS011;2837;50.990;7.124;2023-04-07T07:31:34;157.37;;;9.57;;
5630;SDS011;2837;50.990;7.124;2023-04-07T07:34:00;161.70;;;10.10;;
5630;SDS011;2837;50.990;7.124;2023-04-07T07:36:25;159.87;;;9.53;;
5630;SDS011;2837;50.990;7.124;2023-04-07T07:38:51;159.67;;;10.03;;
5630;SDS011;2837;50.990;7.124;2023-04-07T07:41:17;159.07;;;9.90;;
5630;SDS011;2837;50.990;7.124;2023-04-07T07:43:42;159.87;;;10.30;;
5630;SDS011;2837;50.990;7.124;2023-04-07T07:46:08;157.87;;;9.50;;
5630;SDS011;2837;50.990;7.124;2023-04-07T07:48:33;158.97;;;10.07;;
5630;SDS011;2837;50.990;7.124;2023-04-07T07:50:59;161.47;;;10.67;;
5630;SDS011;2837;50.990;7.124;2023-04-07T07:53:24;157.90;;;9.10;;
5630;SDS011;2837;50.990;7.124;2023-04-07T07:55:50;157.67;;;9.43;;
5630;SDS011;2837;50.990;7.124;2023-04-07T07:58:16;157.50;;;9.27;;
5630;SDS011;2837;50.990;7.124;2023-04-07T08:00:41;158.20;;;9.17;;
5630;SDS011;2837;50.990;7.124;2023-04-07T08:03:07;157.00;;;9.50;;
5630;SDS011;2837;50.990;7.124;2023-04-07T08:05:32;156.37;;;8.90;;
5630;SDS011;2837;50.990;7.124;2023-04-07T08:07:58;158.10;;;9.40;;
5630;SDS011;2837;50.990;7.124;2023-04-07T08:10:24;158.00;;;9.60;;
5630;SDS011;2837;50.990;7.124;2023-04-07T08:12:49;158.40;;;9.00;;
5630;SDS011;2837;50.990;7.124;2023-04-07T08:15:15;158.97;;;9.23;;
5630;SDS011;2837;50.990;7.124;2023-04-07T08:17:41;159.17;;;10.00;;
5630;SDS011;2837;50.990;7.124;2023-04-07T08:20:06;157.57;;;9.07;;
5630;SDS011;2837;50.990;7.124;2023-04-07T08:22:34;156.97;;;9.00;;
5630;SDS011;2837;50.990;7.124;2023-04-07T08:24:59;157.10;;;8.90;;
5630;SDS011;2837;50.990;7.124;2023-04-07T08:27:25;156.80;;;8.80;;
5630;SDS011;2837;50.990;7.124;2023-04-07T08:29:58;159.87;;;9.23;;
5630;SDS011;2837;50.990;7.124;2023-04-07T08:32:25;156.80;;;8.93;;
5630;SDS011;2837;50.990;7.124;2023-04-07T08:34:58;158.43;;;8.93;;
5630;SDS011;2837;50.990;7.124;2023-04-07T08:37:24;157.17;;;9.30;;
5630;SDS011;2837;50.990;7.124;2023-04-07T08:39:50;157.03;;;9.30;;
5630;SDS011;2837;50.990;7.124;2023-04-07T08:42:15;160.90;;;9.13;;
5630;SDS011;2837;50.990;7.124;2023-04-07T08:44:42;157.70;;;9.30;;
5630;SDS011;2837;50.990;7.124;2023-04-07T08:47:10;159.67;;;9.10;;
5630;SDS011;2837;50.990;7.124;2023-04-07T08:49:36;157.07;;;9.60;;
5630;SDS011;2837;50.990;7.124;2023-04-07T08:52:05;157.30;;;9.40;;
5630;SDS011;2837;50.990;7.124;2023-04-07T08:54:35;159.60;;;10.43;;
5630;SDS011;2837;50.990;7.124;2023-04-07T08:57:01;158.93;;;9.70;;
5630;SDS011;2837;50.990;7.124;2023-04-07T08:59:27;155.77;;;8.90;;
5630;SDS011;2837;50.990;7.124;2023-04-07T09:01:54;162.07;;;9.40;;
5630;SDS011;2837;50.990;7.124;2023-04-07T09:04:20;158.43;;;9.40;;
5630;SDS011;2837;50.990;7.124;2023-04-07T09:06:48;156.80;;;9.07;;
5630;SDS011;2837;50.990;7.124;2023-04-07T09:09:14;155.97;;;8.80;;
5630;SDS011;2837;50.990;7.124;2023-04-07T09:11:39;157.10;;;9.23;;
5630;SDS011;2837;50.990;7.124;2023-04-07T09:14:05;158.07;;;9.60;;
5630;SDS011;2837;50.990;7.124;2023-04-07T09:16:31;158.20;;;9.00;;
5630;SDS011;2837;50.990;7.124;2023-04-07T09:18:57;159.80;;;9.43;;
5630;SDS011;2837;50.990;7.124;2023-04-07T09:21:23;157.93;;;9.60;;
5630;SDS011;2837;50.990;7.124;2023-04-07T09:23:49;158.30;;;9.63;;
5630;SDS011;2837;50.990;7.124;2023-04-07T09:26:24;158.43;;;10.50;;
5630;SDS011;2837;50.990;7.124;2023-04-07T09:28:58;157.07;;;9.30;;
5630;SDS011;2837;50.990;7.124;2023-04-07T09:31:43;161.17;;;10.27;;
5630;SDS011;2837;50.990;7.124;2023-04-07T09:34:25;157.20;;;9.63;;
5630;SDS011;2837;50.990;7.124;2023-04-07T09:36:52;158.97;;;9.80;;
5630;SDS011;2837;50.990;7.124;2023-04-07T09:39:18;162.50;;;9.77;;
5630;SDS011;2837;50.990;7.124;2023-04-07T09:41:44;156.47;;;8.97;;
5630;SDS011;2837;50.990;7.124;2023-04-07T09:44:09;157.37;;;9.10;;
5630;SDS011;2837;50.990;7.124;2023-04-07T09:46:47;157.00;;;9.20;;
5630;SDS011;2837;50.990;7.124;2023-04-07T09:49:20;156.57;;;9.10;;
5630;SDS011;2837;50.990;7.124;2023-04-07T09:52:02;155.67;;;8.70;;
5630;SDS011;2837;50.990;7.124;2023-04-07T09:57:01;156.77;;;9.37;;
5630;SDS011;2837;50.990;7.124;2023-04-07T09:59:31;158.30;;;9.50;;
5630;SDS011;2837;50.990;7.124;2023-04-07T10:01:58;158.43;;;9.97;;
5630;SDS011;2837;50.990;7.124;2023-04-07T10:04:25;157.33;;;9.03;;
5630;SDS011;2837;50.990;7.124;2023-04-07T10:06:55;156.57;;;9.33;;
5630;SDS011;2837;50.990;7.124;2023-04-07T10:09:23;157.07;;;9.87;;
5630;SDS011;2837;50.990;7.124;2023-04-07T10:11:51;156.13;;;9.20;;
5630;SDS011;2837;50.990;7.124;2023-04-07T10:14:21;156.70;;;8.93;;
5630;SDS011;2837;50.990;7.124;2023-04-07T10:16:48;156.47;;;9.10;;
5630;SDS011;2837;50.990;7.124;2023-04-07T10:19:15;156.77;;;8.90;;
5630;SDS011;2837;50.990;7.124;2023-04-07T10:21:42;157.27;;;9.17;;
5630;SDS011;2837;50.990;7.124;2023-04-07T10:26:58;157.63;;;9.50;;
5630;SDS011;2837;50.990;7.124;2023-04-07T10:29:28;156.27;;;9.47;;
5630;SDS011;2837;50.990;7.124;2023-04-07T10:31:58;154.87;;;8.70;;
5630;SDS011;2837;50.990;7.124;2023-04-07T10:37:14;157.60;;;9.50;;
5630;SDS011;2837;50.990;7.124;2023-04-07T10:39:42;156.90;;;9.10;;
5630;SDS011;2837;50.990;7.124;2023-04-07T10:42:50;155.17;;;8.30;;
5630;SDS011;2837;50.990;7.124;2023-04-07T10:45:06;156.53;;;8.60;;
5630;SDS011;2837;50.990;7.124;2023-04-07T10:50:35;157.67;;;9.87;;
5630;SDS011;2837;50.990;7.124;2023-04-07T10:53:10;156.37;;;9.47;;
5630;SDS011;2837;50.990;7.124;2023-04-07T10:55:38;157.20;;;9.43;;
5630;SDS011;2837;50.990;7.124;2023-04-07T11:03:29;157.77;;;9.37;;
5630;SDS011;2837;50.990;7.124;2023-04-07T11:06:07;155.37;;;8.50;;
5630;SDS011;2837;50.990;7.124;2023-04-07T11:11:08;160.30;;;9.77;;
5630;SDS011;2837;50.990;7.124;2023-04-07T11:13:42;158.37;;;9.33;;
5630;SDS011;2837;50.990;7.124;2023-04-07T11:16:10;156.10;;;9.50;;
5630;SDS011;2837;50.990;7.124;2023-04-07T11:18:36;156.93;;;9.97;;
5630;SDS011;2837;50.990;7.124;2023-04-07T11:21:03;156.67;;;9.47;;
5630;SDS011;2837;50.990;7.124;2023-04-07T11:23:36;156.47;;;10.30;;
5630;SDS011;2837;50.990;7.124;2023-04-07T11:26:03;156.77;;;10.20;;
5630;SDS011;2837;50.990;7.124;2023-04-07T11:28:29;159.83;;;10.43;;
5630;SDS011;2837;50.990;7.124;2023-04-07T11:30:55;158.07;;;10.40;;
5630;SDS011;2837;50.990;7.124;2023-04-07T11:33:24;158.70;;;11.00;;
5630;SDS011;2837;50.990;7.124;2023-04-07T11:35:55;157.40;;;10.60;;
5630;SDS011;2837;50.990;7.124;2023-04-07T11:38:25;157.87;;;9.90;;
5630;SDS011;2837;50.990;7.124;2023-04-07T11:40:53;159.83;;;10.80;;
5630;SDS011;2837;50.990;7.124;2023-04-07T11:43:23;157.50;;;10.70;;
5630;SDS011;2837;50.990;7.124;2023-04-07T11:46:03;155.83;;;9.93;;
5630;SDS011;2837;50.990;7.124;2023-04-07T11:48:31;159.60;;;10.13;;
5630;SDS011;2837;50.990;7.124;2023-04-07T11:50:58;156.43;;;10.30;;
5630;SDS011;2837;50.990;7.124;2023-04-07T11:53:28;156.43;;;10.20;;
5630;SDS011;2837;50.990;7.124;2023-04-07T11:58:30;158.40;;;10.20;;
5630;SDS011;2837;50.990;7.124;2023-04-07T12:00:59;157.57;;;10.10;;
5630;SDS011;2837;50.990;7.124;2023-04-07T12:03:31;159.87;;;10.70;;
5630;SDS011;2837;50.990;7.124;2023-04-07T12:06:00;157.70;;;10.67;;
5630;SDS011;2837;50.990;7.124;2023-04-07T12:11:05;160.87;;;11.73;;
5630;SDS011;2837;50.990;7.124;2023-04-07T12:13:31;159.27;;;10.50;;
5630;SDS011;2837;50.990;7.124;2023-04-07T12:15:58;160.67;;;11.13;;
5630;SDS011;2837;50.990;7.124;2023-04-07T12:18:24;158.27;;;10.20;;
5630;SDS011;2837;50.990;7.124;2023-04-07T12:20:50;158.67;;;10.33;;
5630;SDS011;2837;50.990;7.124;2023-04-07T12:23:16;160.07;;;11.20;;
5630;SDS011;2837;50.990;7.124;2023-04-07T12:25:42;157.77;;;10.50;;
5630;SDS011;2837;50.990;7.124;2023-04-07T12:28:07;157.80;;;10.90;;
5630;SDS011;2837;50.990;7.124;2023-04-07T12:30:33;159.00;;;10.30;;
5630;SDS011;2837;50.990;7.124;2023-04-07T12:32:58;158.10;;;10.57;;
5630;SDS011;2837;50.990;7.124;2023-04-07T12:35:24;159.97;;;11.53;;
5630;SDS011;2837;50.990;7.124;2023-04-07T12:37:50;161.70;;;12.17;;
5630;SDS011;2837;50.990;7.124;2023-04-07T12:40:17;159.60;;;11.00;;
5630;SDS011;2837;50.990;7.124;2023-04-07T12:42:42;160.80;;;12.37;;
5630;SDS011;2837;50.990;7.124;2023-04-07T12:45:08;163.33;;;13.30;;
5630;SDS011;2837;50.990;7.124;2023-04-07T12:47:34;161.10;;;12.50;;
5630;SDS011;2837;50.990;7.124;2023-04-07T12:49:59;160.73;;;12.67;;
5630;SDS011;2837;50.990;7.124;2023-04-07T12:52:25;160.50;;;12.40;;
5630;SDS011;2837;50.990;7.124;2023-04-07T12:54:51;163.27;;;12.67;;
5630;SDS011;2837;50.990;7.124;2023-04-07T12:57:17;162.77;;;12.27;;
5630;SDS011;2837;50.990;7.124;2023-04-07T12:59:43;160.80;;;12.00;;
5630;SDS011;2837;50.990;7.124;2023-04-07T13:02:09;159.50;;;11.07;;
5630;SDS011;2837;50.990;7.124;2023-04-07T13:04:37;162.27;;;12.93;;
5630;SDS011;2837;50.990;7.124;2023-04-07T13:07:04;159.40;;;11.00;;
5630;SDS011;2837;50.990;7.124;2023-04-07T13:09:30;159.60;;;11.70;;
5630;SDS011;2837;50.990;7.124;2023-04-07T13:11:55;156.40;;;10.30;;
5630;SDS011;2837;50.990;7.124;2023-04-07T13:14:21;158.57;;;11.47;;
5630;SDS011;2837;50.990;7.124;2023-04-07T13:16:47;159.57;;;11.23;;
5630;SDS011;2837;50.990;7.124;2023-04-07T13:19:13;157.00;;;10.20;;
5630;SDS011;2837;50.990;7.124;2023-04-07T13:21:38;160.37;;;10.53;;
5630;SDS011;2837;50.990;7.124;2023-04-07T13:24:04;155.97;;;10.03;;
5630;SDS011;2837;50.990;7.124;2023-04-07T13:26:30;156.70;;;9.57;;
5630;SDS011;2837;50.990;7.124;2023-04-07T13:28:55;156.80;;;10.40;;
5630;SDS011;2837;50.990;7.124;2023-04-07T13:31:21;156.97;;;10.17;;
5630;SDS011;2837;50.990;7.124;2023-04-07T13:33:47;160.87;;;10.20;;
5630;SDS011;2837;50.990;7.124;2023-04-07T13:36:13;155.77;;;10.00;;
5630;SDS011;2837;50.990;7.124;2023-04-07T13:38:39;154.93;;;9.27;;
5630;SDS011;2837;50.990;7.124;2023-04-07T13:41:06;159.23;;;9.77;;
5630;SDS011;2837;50.990;7.124;2023-04-07T13:43:31;155.40;;;9.53;;
5630;SDS011;2837;50.990;7.124;2023-04-07T13:45:57;155.67;;;9.27;;
5630;SDS011;2837;50.990;7.124;2023-04-07T13:48:22;156.17;;;10.33;;
5630;SDS011;2837;50.990;7.124;2023-04-07T13:50:48;156.67;;;9.83;;
5630;SDS011;2837;50.990;7.124;2023-04-07T13:53:14;156.57;;;9.63;;
5630;SDS011;2837;50.990;7.124;2023-04-07T13:55:39;156.47;;;9.97;;
5630;SDS011;2837;50.990;7.124;2023-04-07T13:58:05;159.17;;;10.50;;
5630;SDS011;2837;50.990;7.124;2023-04-07T14:00:31;156.57;;;9.57;;
5630;SDS011;2837;50.990;7.124;2023-04-07T14:02:59;155.17;;;9.57;;
5630;SDS011;2837;50.990;7.124;2023-04-07T14:05:25;158.10;;;10.00;;
5630;SDS011;2837;50.990;7.124;2023-04-07T14:07:51;158.37;;;10.00;;
5630;SDS011;2837;50.990;7.124;2023-04-07T14:10:16;156.17;;;10.30;;
5630;SDS011;2837;50.990;7.124;2023-04-07T14:12:42;156.27;;;10.27;;
5630;SDS011;2837;50.990;7.124;2023-04-07T14:15:08;156.07;;;10.20;;
5630;SDS011;2837;50.990;7.124;2023-04-07T14:17:33;156.47;;;9.50;;
5630;SDS011;2837;50.990;7.124;2023-04-07T14:19:59;155.57;;;9.33;;
5630;SDS011;2837;50.990;7.124;2023-04-07T14:22:25;154.97;;;9.00;;
5630;SDS011;2837;50.990;7.124;2023-04-07T14:24:50;157.70;;;10.30;;
5630;SDS011;2837;50.990;7.124;2023-04-07T14:27:16;156.70;;;10.23;;
5630;SDS011;2837;50.990;7.124;2023-04-07T14:29:45;158.07;;;10.33;;
5630;SDS011;2837;50.990;7.124;2023-04-07T14:32:11;156.07;;;9.67;;
5630;SDS011;2837;50.990;7.124;2023-04-07T14:34:37;158.90;;;10.73;;
5630;SDS011;2837;50.990;7.124;2023-04-07T14:37:02;157.37;;;9.47;;
5630;SDS011;2837;50.990;7.124;2023-04-07T14:39:28;156.50;;;9.67;;
5630;SDS011;2837;50.990;7.124;2023-04-07T14:41:54;156.07;;;10.40;;
5630;SDS011;2837;50.990;7.124;2023-04-07T14:44:19;154.57;;;9.37;;
5630;SDS011;2837;50.990;7.124;2023-04-07T14:46:45;155.83;;;9.67;;
5630;SDS011;2837;50.990;7.124;2023-04-07T14:49:11;155.30;;;9.33;;
5630;SDS011;2837;50.990;7.124;2023-04-07T14:51:38;155.77;;;10.30;;
5630;SDS011;2837;50.990;7.124;2023-04-07T14:54:03;159.07;;;10.27;;
5630;SDS011;2837;50.990;7.124;2023-04-07T14:56:29;155.77;;;8.93;;
5630;SDS011;2837;50.990;7.124;2023-04-07T14:58:54;162.07;;;9.80;;
5630;SDS011;2837;50.990;7.124;2023-04-07T15:01:20;156.07;;;10.37;;
5630;SDS011;2837;50.990;7.124;2023-04-07T15:03:45;155.13;;;9.83;;
5630;SDS011;2837;50.990;7.124;2023-04-07T15:06:11;155.53;;;9.70;;
5630;SDS011;2837;50.990;7.124;2023-04-07T15:08:37;157.03;;;10.10;;
5630;SDS011;2837;50.990;7.124;2023-04-07T15:11:04;160.47;;;10.67;;
5630;SDS011;2837;50.990;7.124;2023-04-07T15:13:31;156.87;;;10.07;;
5630;SDS011;2837;50.990;7.124;2023-04-07T15:16:04;157.97;;;10.07;;
5630;SDS011;2837;50.990;7.124;2023-04-07T15:18:34;155.83;;;9.70;;
5630;SDS011;2837;50.990;7.124;2023-04-07T15:20:59;156.07;;;9.70;;
5630;SDS011;2837;50.990;7.124;2023-04-07T15:23:25;156.27;;;10.00;;
5630;SDS011;2837;50.990;7.124;2023-04-07T15:25:50;156.67;;;10.30;;
5630;SDS011;2837;50.990;7.124;2023-04-07T15:28:20;157.40;;;9.77;;
5630;SDS011;2837;50.990;7.124;2023-04-07T15:30:46;156.67;;;9.67;;
5630;SDS011;2837;50.990;7.124;2023-04-07T15:33:11;158.17;;;10.40;;
5630;SDS011;2837;50.990;7.124;2023-04-07T15:35:37;156.57;;;9.67;;
5630;SDS011;2837;50.990;7.124;2023-04-07T15:38:04;160.60;;;10.90;;
5630;SDS011;2837;50.990;7.124;2023-04-07T15:40:29;155.10;;;9.47;;
5630;SDS011;2837;50.990;7.124;2023-04-07T15:42:55;158.50;;;10.60;;
5630;SDS011;2837;50.990;7.124;2023-04-07T15:45:20;156.70;;;10.60;;
5630;SDS011;2837;50.990;7.124;2023-04-07T15:47:46;156.70;;;9.93;;
5630;SDS011;2837;50.990;7.124;2023-04-07T15:50:11;155.83;;;10.13;;
5630;SDS011;2837;50.990;7.124;2023-04-07T15:52:37;156.00;;;10.23;;
5630;SDS011;2837;50.990;7.124;2023-04-07T15:55:03;156.77;;;10.17;;
5630;SDS011;2837;50.990;7.124;2023-04-07T15:57:28;154.97;;;9.57;;
5630;SDS011;2837;50.990;7.124;2023-04-07T15:59:54;157.13;;;10.90;;
5630;SDS011;2837;50.990;7.124;2023-04-07T16:02:19;154.67;;;9.70;;
5630;SDS011;2837;50.990;7.124;2023-04-07T16:04:45;157.20;;;10.50;;
5630;SDS011;2837;50.990;7.124;2023-04-07T16:07:12;156.53;;;10.53;;
5630;SDS011;2837;50.990;7.124;2023-04-07T16:09:37;156.13;;;10.00;;
5630;SDS011;2837;50.990;7.124;2023-04-07T16:12:03;155.40;;;10.13;;
5630;SDS011;2837;50.990;7.124;2023-04-07T16:14:28;156.37;;;10.40;;
5630;SDS011;2837;50.990;7.124;2023-04-07T16:16:55;155.60;;;10.33;;
5630;SDS011;2837;50.990;7.124;2023-04-07T16:19:23;157.67;;;10.20;;
5630;SDS011;2837;50.990;7.124;2023-04-07T16:21:50;156.90;;;9.97;;
5630;SDS011;2837;50.990;7.124;2023-04-07T16:24:15;156.63;;;10.97;;
5630;SDS011;2837;50.990;7.124;2023-04-07T16:26:41;158.47;;;9.90;;
5630;SDS011;2837;50.990;7.124;2023-04-07T16:29:06;157.60;;;10.80;;
5630;SDS011;2837;50.990;7.124;2023-04-07T16:31:32;156.87;;;11.20;;
5630;SDS011;2837;50.990;7.124;2023-04-07T16:33:57;156.87;;;10.63;;
5630;SDS011;2837;50.990;7.124;2023-04-07T16:36:23;157.77;;;11.23;;
5630;SDS011;2837;50.990;7.124;2023-04-07T16:38:49;158.03;;;10.83;;
5630;SDS011;2837;50.990;7.124;2023-04-07T16:41:15;156.63;;;11.07;;
5630;SDS011;2837;50.990;7.124;2023-04-07T16:43:40;157.43;;;10.13;;
5630;SDS011;2837;50.990;7.124;2023-04-07T16:46:06;157.77;;;11.07;;
5630;SDS011;2837;50.990;7.124;2023-04-07T16:48:31;156.37;;;10.10;;
5630;SDS011;2837;50.990;7.124;2023-04-07T16:50:57;159.63;;;11.80;;
5630;SDS011;2837;50.990;7.124;2023-04-07T16:53:23;159.60;;;10.43;;
5630;SDS011;2837;50.990;7.124;2023-04-07T16:55:48;159.77;;;11.60;;
5630;SDS011;2837;50.990;7.124;2023-04-07T16:58:14;156.77;;;10.57;;
5630;SDS011;2837;50.990;7.124;2023-04-07T17:00:43;159.00;;;9.90;;
5630;SDS011;2837;50.990;7.124;2023-04-07T17:03:09;157.37;;;10.10;;
5630;SDS011;2837;50.990;7.124;2023-04-07T17:05:34;157.00;;;10.00;;
5630;SDS011;2837;50.990;7.124;2023-04-07T17:08:00;157.97;;;10.27;;
5630;SDS011;2837;50.990;7.124;2023-04-07T17:10:26;158.47;;;10.50;;
5630;SDS011;2837;50.990;7.124;2023-04-07T17:12:51;157.60;;;9.70;;
5630;SDS011;2837;50.990;7.124;2023-04-07T17:15:20;156.50;;;9.57;;
5630;SDS011;2837;50.990;7.124;2023-04-07T17:17:46;157.97;;;9.60;;
5630;SDS011;2837;50.990;7.124;2023-04-07T17:20:13;157.03;;;10.20;;
5630;SDS011;2837;50.990;7.124;2023-04-07T17:22:41;159.10;;;10.70;;
5630;SDS011;2837;50.990;7.124;2023-04-07T17:25:07;158.37;;;10.73;;
5630;SDS011;2837;50.990;7.124;2023-04-07T17:27:33;157.40;;;9.57;;
5630;SDS011;2837;50.990;7.124;2023-04-07T17:29:59;159.50;;;11.13;;
5630;SDS011;2837;50.990;7.124;2023-04-07T17:32:25;160.17;;;10.57;;
5630;SDS011;2837;50.990;7.124;2023-04-07T17:34:51;158.80;;;9.70;;
5630;SDS011;2837;50.990;7.124;2023-04-07T17:37:16;156.07;;;10.03;;
5630;SDS011;2837;50.990;7.124;2023-04-07T17:39:42;158.63;;;10.33;;
5630;SDS011;2837;50.990;7.124;2023-04-07T17:42:07;159.90;;;11.30;;
5630;SDS011;2837;50.990;7.124;2023-04-07T17:44:34;157.50;;;9.37;;
5630;SDS011;2837;50.990;7.124;2023-04-07T17:47:01;155.90;;;9.50;;
5630;SDS011;2837;50.990;7.124;2023-04-07T17:49:27;157.60;;;10.60;;
5630;SDS011;2837;50.990;7.124;2023-04-07T17:51:52;165.50;;;9.87;;
5630;SDS011;2837;50.990;7.124;2023-04-07T17:54:18;159.43;;;11.03;;
5630;SDS011;2837;50.990;7.124;2023-04-07T17:56:44;156.37;;;9.80;;
5630;SDS011;2837;50.990;7.124;2023-04-07T17:59:10;160.60;;;11.10;;
5630;SDS011;2837;50.990;7.124;2023-04-07T18:01:35;158.83;;;10.70;;
5630;SDS011;2837;50.990;7.124;2023-04-07T18:04:01;156.87;;;10.17;;
5630;SDS011;2837;50.990;7.124;2023-04-07T18:06:27;158.50;;;11.53;;
5630;SDS011;2837;50.990;7.124;2023-04-07T18:08:52;159.47;;;10.70;;
5630;SDS011;2837;50.990;7.124;2023-04-07T18:11:18;159.67;;;10.50;;
5630;SDS011;2837;50.990;7.124;2023-04-07T18:13:45;159.37;;;10.90;;
5630;SDS011;2837;50.990;7.124;2023-04-07T18:16:11;160.07;;;11.03;;
5630;SDS011;2837;50.990;7.124;2023-04-07T18:18:41;157.73;;;11.20;;
5630;SDS011;2837;50.990;7.124;2023-04-07T18:21:08;157.77;;;10.27;;
5630;SDS011;2837;50.990;7.124;2023-04-07T18:23:33;158.33;;;10.70;;
5630;SDS011;2837;50.990;7.124;2023-04-07T18:26:05;158.23;;;11.47;;
5630;SDS011;2837;50.990;7.124;2023-04-07T18:28:30;160.37;;;12.27;;
5630;SDS011;2837;50.990;7.124;2023-04-07T18:31:00;159.10;;;10.83;;
5630;SDS011;2837;50.990;7.124;2023-04-07T18:33:30;157.83;;;11.00;;
5630;SDS011;2837;50.990;7.124;2023-04-07T18:36:03;159.80;;;11.30;;
5630;SDS011;2837;50.990;7.124;2023-04-07T18:38:31;161.77;;;12.63;;
5630;SDS011;2837;50.990;7.124;2023-04-07T18:40:56;160.53;;;11.90;;
5630;SDS011;2837;50.990;7.124;2023-04-07T18:43:23;159.97;;;12.73;;
5630;SDS011;2837;50.990;7.124;2023-04-07T18:45:49;159.47;;;11.63;;
5630;SDS011;2837;50.990;7.124;2023-04-07T18:48:16;162.70;;;12.27;;
5630;SDS011;2837;50.990;7.124;2023-04-07T18:50:42;162.07;;;12.20;;
5630;SDS011;2837;50.990;7.124;2023-04-07T18:53:12;162.07;;;11.50;;
5630;SDS011;2837;50.990;7.124;2023-04-07T18:55:39;162.63;;;13.00;;
5630;SDS011;2837;50.990;7.124;2023-04-07T18:58:05;163.57;;;12.47;;
5630;SDS011;2837;50.990;7.124;2023-04-07T19:00:32;161.10;;;13.00;;
5630;SDS011;2837;50.990;7.124;2023-04-07T19:02:58;162.20;;;13.50;;
5630;SDS011;2837;50.990;7.124;2023-04-07T19:05:23;163.13;;;13.50;;
5630;SDS011;2837;50.990;7.124;2023-04-07T19:07:49;162.93;;;13.40;;
5630;SDS011;2837;50.990;7.124;2023-04-07T19:10:15;160.80;;;12.80;;
5630;SDS011;2837;50.990;7.124;2023-04-07T19:12:40;163.97;;;12.77;;
5630;SDS011;2837;50.990;7.124;2023-04-07T19:15:06;161.73;;;12.03;;
5630;SDS011;2837;50.990;7.124;2023-04-07T19:17:32;165.97;;;13.50;;
5630;SDS011;2837;50.990;7.124;2023-04-07T19:19:57;161.80;;;13.70;;
5630;SDS011;2837;50.990;7.124;2023-04-07T19:22:23;165.77;;;13.43;;
5630;SDS011;2837;50.990;7.124;2023-04-07T19:24:49;162.27;;;12.60;;
5630;SDS011;2837;50.990;7.124;2023-04-07T19:27:14;163.77;;;12.37;;
5630;SDS011;2837;50.990;7.124;2023-04-07T19:29:40;162.77;;;12.93;;
5630;SDS011;2837;50.990;7.124;2023-04-07T19:32:06;166.47;;;13.00;;
5630;SDS011;2837;50.990;7.124;2023-04-07T19:34:32;162.13;;;12.53;;
5630;SDS011;2837;50.990;7.124;2023-04-07T19:36:58;161.67;;;13.00;;
5630;SDS011;2837;50.990;7.124;2023-04-07T19:39:24;161.77;;;13.87;;
5630;SDS011;2837;50.990;7.124;2023-04-07T19:41:49;163.03;;;13.10;;
5630;SDS011;2837;50.990;7.124;2023-04-07T19:44:15;161.60;;;12.70;;
5630;SDS011;2837;50.990;7.124;2023-04-07T19:46:42;166.00;;;13.30;;
5630;SDS011;2837;50.990;7.124;2023-04-07T19:49:08;165.43;;;14.10;;
5630;SDS011;2837;50.990;7.124;2023-04-07T19:51:34;162.60;;;13.03;;
5630;SDS011;2837;50.990;7.124;2023-04-07T19:53:59;163.10;;;12.87;;
5630;SDS011;2837;50.990;7.124;2023-04-07T19:56:25;162.73;;;13.80;;
5630;SDS011;2837;50.990;7.124;2023-04-07T19:58:51;163.80;;;13.10;;